createdAt,value
2022-12-19T00:01:35.393Z,20.65
2022-12-19T00:04:08.156Z,19.95
2022-12-19T00:06:37.348Z,18.05
2022-12-19T00:09:04.956Z,17.83
2022-12-19T00:11:32.859Z,17.75
2022-12-19T00:14:00.256Z,20.30
2022-12-19T00:16:29.444Z,19.95
2022-12-19T00:18:59.399Z,17.35
2022-12-19T00:21:28.418Z,18.58
2022-12-19T00:23:55.597Z,18.33
2022-12-19T00:26:25.198Z,19.85
2022-12-19T00:29:12.549Z,18.58
2022-12-19T00:31:41.213Z,18.10
2022-12-19T00:34:09.131Z,17.92
2022-12-19T00:36:36.155Z,17.40
2022-12-19T00:39:08.210Z,18.27
2022-12-19T00:41:41.595Z,18.40
2022-12-19T00:44:14.266Z,19.10
2022-12-19T00:46:41.832Z,17.92
2022-12-19T00:49:08.974Z,19.10
2022-12-19T00:51:37.583Z,18.85
2022-12-19T00:54:06.705Z,17.73
2022-12-19T00:56:37.249Z,18.60
2022-12-19T00:59:06.258Z,15.57
2022-12-19T01:01:36.311Z,19.40
2022-12-19T01:06:52.602Z,19.13
2022-12-19T01:09:21.781Z,18.58
2022-12-19T01:12:07.046Z,18.35
2022-12-19T01:14:33.896Z,17.30
2022-12-19T01:17:00.836Z,17.90
2022-12-19T01:19:27.921Z,15.88
2022-12-19T01:21:54.752Z,16.65
2022-12-19T01:24:21.819Z,13.32
2022-12-19T01:26:48.775Z,15.40
2022-12-19T01:29:15.588Z,16.88
2022-12-19T01:31:42.516Z,17.05
2022-12-19T01:34:09.500Z,17.58
2022-12-19T01:36:40.128Z,16.10
2022-12-19T01:39:07.898Z,16.40
2022-12-19T01:41:35.557Z,17.25
2022-12-19T01:44:07.293Z,17.10
2022-12-19T01:46:38.561Z,17.20
2022-12-19T01:49:12.653Z,18.33
2022-12-19T01:51:44.874Z,17.25
2022-12-19T01:54:17.585Z,17.55
2022-12-19T01:56:49.686Z,16.35
2022-12-19T01:59:31.872Z,17.50
2022-12-19T02:02:23.772Z,17.05
2022-12-19T02:04:50.733Z,17.90
2022-12-19T02:07:20.182Z,18.73
2022-12-19T02:09:51.905Z,17.58
2022-12-19T02:12:26.219Z,19.17
2022-12-19T02:14:59.131Z,18.15
2022-12-19T02:17:52.762Z,18.92
2022-12-19T02:20:34.646Z,18.73
2022-12-19T02:23:10.592Z,19.58
2022-12-19T02:26:24.793Z,19.02
2022-12-19T02:29:17.819Z,18.23
2022-12-19T02:31:57.303Z,17.50
2022-12-19T02:34:31.736Z,19.30
2022-12-19T02:37:17.143Z,19.20
2022-12-19T02:40:37.090Z,19.42
2022-12-19T02:43:06.573Z,17.00
2022-12-19T02:45:37.858Z,20.08
2022-12-19T02:48:08.992Z,20.27
2022-12-19T02:50:41.651Z,20.00
2022-12-19T02:53:11.067Z,18.52
2022-12-19T02:56:05.619Z,21.27
2022-12-19T02:59:03.470Z,19.48
2022-12-19T03:01:49.113Z,19.40
2022-12-19T03:04:39.664Z,19.35
2022-12-19T03:07:34.169Z,19.70
2022-12-19T03:10:03.710Z,18.20
2022-12-19T03:12:36.679Z,19.20
2022-12-19T03:15:04.894Z,18.40
2022-12-19T03:17:36.706Z,20.27
2022-12-19T03:20:28.525Z,19.35
2022-12-19T03:22:55.480Z,19.60
2022-12-19T03:25:24.278Z,19.35
2022-12-19T03:27:53.799Z,19.38
2022-12-19T03:30:20.776Z,19.95
2022-12-19T03:32:49.341Z,19.05
2022-12-19T03:35:25.072Z,18.65
2022-12-19T03:37:59.221Z,17.38
2022-12-19T03:40:27.274Z,20.13
2022-12-19T03:43:09.023Z,19.67
2022-12-19T03:45:52.928Z,20.35
2022-12-19T03:48:43.616Z,14.90
2022-12-19T03:51:19.277Z,18.98
2022-12-19T03:53:46.052Z,18.02
2022-12-19T03:56:16.832Z,19.63
2022-12-19T03:58:50.218Z,17.95
2022-12-19T04:01:17.367Z,21.20
2022-12-19T04:03:44.762Z,18.10
2022-12-19T04:06:13.368Z,15.98
2022-12-19T04:08:41.412Z,19.88
2022-12-19T04:11:15.829Z,11.65
2022-12-19T04:13:49.094Z,17.30
2022-12-19T04:16:15.902Z,19.58
2022-12-19T04:18:48.042Z,18.10
2022-12-19T04:21:25.295Z,21.20
2022-12-19T04:23:58.437Z,19.50
2022-12-19T04:26:26.542Z,19.10
2022-12-19T04:28:56.707Z,18.42
2022-12-19T04:31:24.293Z,19.20
2022-12-19T04:33:51.164Z,18.30
2022-12-19T04:36:18.166Z,18.27
2022-12-19T04:38:44.994Z,22.00
2022-12-19T04:41:12.535Z,16.83
2022-12-19T04:43:39.349Z,19.83
2022-12-19T04:46:06.626Z,20.23
2022-12-19T04:48:38.326Z,18.13
2022-12-19T04:51:05.389Z,19.60
2022-12-19T04:53:32.773Z,19.15
2022-12-19T04:56:04.486Z,18.15
2022-12-19T04:58:31.915Z,21.48
2022-12-19T05:01:07.344Z,20.90
2022-12-19T05:03:35.218Z,20.08
2022-12-19T05:06:13.428Z,18.52
2022-12-19T05:08:42.560Z,20.80
2022-12-19T05:11:15.812Z,18.75
2022-12-19T05:13:45.925Z,19.40
2022-12-19T05:16:13.273Z,21.63
2022-12-19T05:18:40.528Z,21.17
2022-12-19T05:21:08.145Z,20.02
2022-12-19T05:23:35.348Z,19.92
2022-12-19T05:26:04.109Z,21.08
2022-12-19T05:28:32.238Z,21.48
2022-12-19T05:31:04.416Z,20.65
2022-12-19T05:33:31.415Z,22.05
2022-12-19T05:35:58.263Z,20.45
2022-12-19T05:38:26.494Z,20.02
2022-12-19T05:40:53.603Z,19.80
2022-12-19T05:43:20.993Z,21.55
2022-12-19T05:45:47.859Z,20.50
2022-12-19T05:48:14.717Z,19.55
2022-12-19T05:50:41.591Z,22.23
2022-12-19T05:53:09.048Z,20.10
2022-12-19T05:55:35.883Z,19.70
2022-12-19T05:58:02.715Z,21.33
2022-12-19T06:00:29.558Z,21.95
2022-12-19T06:02:56.602Z,20.88
2022-12-19T06:05:23.633Z,20.17
2022-12-19T06:07:50.453Z,20.23
2022-12-19T06:10:17.332Z,20.08
2022-12-19T06:12:44.184Z,19.00
2022-12-19T06:15:11.978Z,18.88
2022-12-19T06:17:38.804Z,19.92
2022-12-19T06:20:06.796Z,17.42
2022-12-19T06:22:35.220Z,18.38
2022-12-19T06:25:02.142Z,18.42
2022-12-19T06:27:28.983Z,20.10
2022-12-19T06:29:55.964Z,18.30
2022-12-19T06:32:22.794Z,19.05
2022-12-19T06:35:03.935Z,19.80
2022-12-19T06:37:31.152Z,19.85
2022-12-19T06:39:57.957Z,18.88
2022-12-19T06:42:24.850Z,19.10
2022-12-19T06:44:54.161Z,19.05
2022-12-19T06:47:22.160Z,18.27
2022-12-19T06:49:49.221Z,18.45
2022-12-19T06:52:16.614Z,19.75
2022-12-19T06:54:43.442Z,19.55
2022-12-19T06:57:10.330Z,20.25
2022-12-19T06:59:37.175Z,20.40
2022-12-19T07:02:23.740Z,19.63
2022-12-19T07:05:02.707Z,20.30
2022-12-19T07:07:29.867Z,18.42
2022-12-19T07:09:56.678Z,19.45
2022-12-19T07:12:23.585Z,20.65
2022-12-19T07:14:53.593Z,19.48
2022-12-19T07:17:23.514Z,17.80
2022-12-19T07:19:50.864Z,21.27
2022-12-19T07:22:17.853Z,19.98
2022-12-19T07:24:44.734Z,20.70
2022-12-19T07:27:11.709Z,20.08
2022-12-19T07:29:38.530Z,17.55
2022-12-19T07:32:05.461Z,19.30
2022-12-19T07:34:32.313Z,20.65
2022-12-19T07:36:59.247Z,20.38
2022-12-19T07:39:26.061Z,21.30
2022-12-19T07:41:52.880Z,21.35
2022-12-19T07:44:19.744Z,21.42
2022-12-19T07:46:46.779Z,20.25
2022-12-19T07:49:17.113Z,20.25
2022-12-19T07:51:48.321Z,19.63
2022-12-19T07:54:15.161Z,19.05
2022-12-19T07:56:42.133Z,19.75
2022-12-19T07:59:09.303Z,20.50
2022-12-19T08:01:36.533Z,20.98
2022-12-19T08:04:03.814Z,20.25
2022-12-19T08:06:34.219Z,20.15
2022-12-19T08:09:04.700Z,20.40
2022-12-19T08:11:31.600Z,19.67
2022-12-19T08:13:58.683Z,19.27
2022-12-19T08:16:27.871Z,20.10
2022-12-19T08:18:55.892Z,19.70
2022-12-19T08:21:23.819Z,19.20
2022-12-19T08:23:52.013Z,19.42
2022-12-19T08:26:28.358Z,20.45
2022-12-19T08:28:58.550Z,20.20
2022-12-19T08:31:27.799Z,19.80
2022-12-19T08:33:56.828Z,18.17
2022-12-19T08:36:26.050Z,20.73
2022-12-19T08:38:53.972Z,18.67
2022-12-19T08:41:21.095Z,18.50
2022-12-19T08:43:53.226Z,20.75
2022-12-19T08:46:21.298Z,19.45
2022-12-19T08:48:48.212Z,19.13
2022-12-19T08:51:16.799Z,18.88
2022-12-19T08:53:45.178Z,18.42
2022-12-19T08:56:17.879Z,18.08
2022-12-19T08:58:45.451Z,19.90
2022-12-19T09:01:16.055Z,20.60
2022-12-19T09:03:52.710Z,17.88
2022-12-19T09:06:29.871Z,18.02
2022-12-19T09:09:00.237Z,17.70
2022-12-19T09:11:27.677Z,17.73
2022-12-19T09:13:57.198Z,17.90
2022-12-19T09:16:26.146Z,19.63
2022-12-19T09:18:55.372Z,18.98
2022-12-19T09:21:23.895Z,19.92
2022-12-19T09:23:54.552Z,17.13
2022-12-19T09:26:24.685Z,17.63
2022-12-19T09:28:58.462Z,16.35
2022-12-19T09:31:26.028Z,17.95
2022-12-19T09:33:53.630Z,17.58
2022-12-19T09:36:23.307Z,19.30
2022-12-19T09:38:51.163Z,18.45
2022-12-19T09:41:52.657Z,17.70
2022-12-19T09:44:25.367Z,16.60
2022-12-19T09:47:13.665Z,17.40
2022-12-19T09:49:45.687Z,18.15
2022-12-19T09:52:41.679Z,16.85
2022-12-19T09:55:25.921Z,17.30
2022-12-19T09:58:01.344Z,17.80
2022-12-19T10:00:59.742Z,18.50
2022-12-19T10:03:39.224Z,18.92
2022-12-19T10:07:16.303Z,18.45
2022-12-19T10:09:38.643Z,19.80
2022-12-19T10:12:44.837Z,18.45
2022-12-19T10:14:53.562Z,19.65
2022-12-19T10:17:37.990Z,19.45
2022-12-19T10:20:27.403Z,19.60
2022-12-19T10:23:12.796Z,19.23
2022-12-19T10:25:52.672Z,18.65
2022-12-19T10:28:34.860Z,20.15
2022-12-19T10:31:21.124Z,18.45
2022-12-19T10:34:04.929Z,20.02
2022-12-19T10:37:12.907Z,19.88
2022-12-19T10:39:42.280Z,17.88
2022-12-19T10:42:19.716Z,20.30
2022-12-19T10:44:49.315Z,19.15
2022-12-19T10:47:17.433Z,21.15
2022-12-19T10:49:44.275Z,20.17
2022-12-19T10:52:12.709Z,19.13
2022-12-19T10:54:43.590Z,21.15
2022-12-19T10:57:22.707Z,20.27
2022-12-19T11:00:05.735Z,17.38
2022-12-19T11:02:35.630Z,15.65
2022-12-19T11:05:21.320Z,16.48
2022-12-19T11:08:06.598Z,16.60
2022-12-19T11:12:17.307Z,14.60
2022-12-19T11:20:15.709Z,15.95
2022-12-19T11:24:02.171Z,16.45
2022-12-19T11:29:14.944Z,16.58
2022-12-19T11:29:31.809Z,16.00
2022-12-19T11:29:37.919Z,16.08
2022-12-19T11:30:40.970Z,16.70
2022-12-19T11:34:18.484Z,16.15
2022-12-19T11:36:50.162Z,16.23
2022-12-19T11:39:44.271Z,14.30
2022-12-19T11:42:29.572Z,16.08
2022-12-19T11:45:32.546Z,15.38
2022-12-19T11:48:07.054Z,16.10
2022-12-19T11:50:54.622Z,16.65
2022-12-19T11:53:33.693Z,17.17
2022-12-19T11:56:15.891Z,17.33
2022-12-19T11:58:59.638Z,18.10
2022-12-19T12:01:47.891Z,17.77
2022-12-19T12:04:48.769Z,19.27
2022-12-19T12:08:05.745Z,19.10
2022-12-19T12:15:18.975Z,18.15
2022-12-19T12:20:27.782Z,19.88
2022-12-19T12:28:25.572Z,19.25
2022-12-19T12:31:15.241Z,20.15
2022-12-19T12:31:46.810Z,18.35
2022-12-19T12:31:49.436Z,19.23
2022-12-19T12:31:50.632Z,18.85
2022-12-19T12:37:15.847Z,19.00
2022-12-19T12:38:22.610Z,18.90
2022-12-19T12:41:21.305Z,18.70
2022-12-19T12:44:32.440Z,18.10
2022-12-19T12:47:17.285Z,17.38
2022-12-19T12:49:48.955Z,19.35
2022-12-19T12:52:20.294Z,18.85
2022-12-19T12:54:48.680Z,16.92
2022-12-19T12:57:32.916Z,17.60
2022-12-19T13:00:22.733Z,16.90
2022-12-19T13:03:04.638Z,17.30
2022-12-19T13:05:46.777Z,17.20
2022-12-19T13:08:34.442Z,16.40
2022-12-19T13:11:44.927Z,16.92
2022-12-19T13:14:34.933Z,17.77
2022-12-19T13:17:02.706Z,17.27
2022-12-19T13:19:52.632Z,18.10
2022-12-19T13:22:37.750Z,18.55
2022-12-19T13:25:27.034Z,21.42
2022-12-19T13:27:58.955Z,19.48
2022-12-19T13:30:28.458Z,20.67
2022-12-19T13:32:55.272Z,19.23
2022-12-19T13:36:19.102Z,19.90
2022-12-19T13:39:55.429Z,19.23
2022-12-19T13:41:24.960Z,20.38
2022-12-19T13:43:58.590Z,20.10
2022-12-19T13:46:36.415Z,18.30
2022-12-19T13:49:08.331Z,19.38
2022-12-19T13:51:55.798Z,19.40
2022-12-19T13:54:26.911Z,21.88
2022-12-19T13:56:55.092Z,18.98
2022-12-19T13:59:24.597Z,18.70
2022-12-19T14:01:53.636Z,19.05
2022-12-19T14:04:33.068Z,21.48
2022-12-19T14:07:05.353Z,19.88
2022-12-19T14:11:27.879Z,21.10
2022-12-19T14:13:55.326Z,18.98
2022-12-19T14:15:52.471Z,19.08
2022-12-19T14:18:44.914Z,19.40
2022-12-19T14:22:04.312Z,21.80
2022-12-19T14:24:20.982Z,19.23
2022-12-19T14:28:17.164Z,19.55
2022-12-19T14:30:30.029Z,19.70
2022-12-19T14:33:47.423Z,19.27
2022-12-19T14:36:07.174Z,19.05
2022-12-19T14:39:19.735Z,20.40
2022-12-19T14:42:07.701Z,19.25
2022-12-19T14:51:43.042Z,19.98
2022-12-19T14:54:15.867Z,21.13
2022-12-19T14:54:21.443Z,20.90
2022-12-19T14:54:30.495Z,22.23
2022-12-19T14:59:03.348Z,23.02
2022-12-19T15:01:33.236Z,22.08
2022-12-19T15:04:50.875Z,22.92
2022-12-19T15:07:06.901Z,23.02
2022-12-19T15:11:07.925Z,21.73
2022-12-19T15:14:51.618Z,22.73
2022-12-19T15:16:30.530Z,21.00
2022-12-19T15:18:59.036Z,22.42
2022-12-19T15:21:26.421Z,22.42
2022-12-19T15:23:53.527Z,22.40
2022-12-19T15:26:28.715Z,22.40
2022-12-19T15:28:57.067Z,23.80
2022-12-19T15:31:35.013Z,20.52
2022-12-19T15:37:16.745Z,22.67
2022-12-19T15:39:44.749Z,22.20
2022-12-19T15:42:22.039Z,23.33
2022-12-19T15:44:51.180Z,22.17
2022-12-19T15:47:44.722Z,22.00
2022-12-19T15:50:24.238Z,22.63
2022-12-19T15:52:57.454Z,24.15
2022-12-19T15:55:27.607Z,23.27
2022-12-19T15:58:03.781Z,24.35
2022-12-19T16:00:34.974Z,24.80
2022-12-19T16:05:49.415Z,25.80
2022-12-19T16:08:19.145Z,25.52
2022-12-19T16:11:01.091Z,24.67
2022-12-19T16:13:32.309Z,24.73
2022-12-19T16:15:59.487Z,24.73
2022-12-19T16:18:26.366Z,25.63
2022-12-19T16:20:53.858Z,26.23
2022-12-19T16:23:22.402Z,25.15
2022-12-19T16:25:51.198Z,26.55
2022-12-19T16:28:29.779Z,24.08
2022-12-19T16:30:58.669Z,24.63
2022-12-19T16:33:28.826Z,25.98
2022-12-19T16:36:05.197Z,24.65
2022-12-19T16:38:33.489Z,27.25
2022-12-19T16:41:01.762Z,24.52
2022-12-19T16:43:31.979Z,26.45
2022-12-19T16:46:01.404Z,24.65
2022-12-19T16:48:31.990Z,25.65
2022-12-19T16:50:59.353Z,26.50
2022-12-19T16:53:26.453Z,25.15
2022-12-19T16:55:56.100Z,23.98
2022-12-19T16:58:25.431Z,22.95
2022-12-19T17:00:55.002Z,23.20
2022-12-19T17:03:27.729Z,23.13
2022-12-19T17:05:55.025Z,22.23
2022-12-19T17:08:21.909Z,22.17
2022-12-19T17:10:49.046Z,23.55
2022-12-19T17:13:17.992Z,22.27
2022-12-19T17:15:48.621Z,22.48
2022-12-19T17:18:29.720Z,20.73
2022-12-19T17:20:56.848Z,22.23
2022-12-19T17:23:24.807Z,23.85
2022-12-19T17:25:52.351Z,23.35
2022-12-19T17:28:19.153Z,24.63
2022-12-19T17:30:57.441Z,23.70
2022-12-19T17:33:29.025Z,21.90
2022-12-19T17:35:55.862Z,23.50
2022-12-19T17:38:22.683Z,24.25
2022-12-19T17:40:49.576Z,23.90
2022-12-19T17:43:16.408Z,25.45
2022-12-19T17:45:43.356Z,22.92
2022-12-19T17:48:26.405Z,25.02
2022-12-19T17:50:54.215Z,25.38
2022-12-19T17:53:21.674Z,24.05
2022-12-19T17:55:48.569Z,25.40
2022-12-19T17:58:15.474Z,24.77
2022-12-19T18:00:43.539Z,24.25
2022-12-19T18:03:16.507Z,26.05
2022-12-19T18:05:43.967Z,25.92
2022-12-19T18:08:30.674Z,23.10
2022-12-19T18:11:00.451Z,25.02
2022-12-19T18:13:29.178Z,25.90
2022-12-19T18:15:59.276Z,23.38
2022-12-19T18:18:31.637Z,25.20
2022-12-19T18:21:00.278Z,22.92
2022-12-19T18:23:27.439Z,20.38
2022-12-19T18:25:59.433Z,20.73
2022-12-19T18:28:28.716Z,20.30
2022-12-19T18:31:28.110Z,21.60
2022-12-19T18:34:02.091Z,19.48
2022-12-19T18:36:43.012Z,19.63
2022-12-19T18:39:24.515Z,17.50
2022-12-19T18:41:52.605Z,18.35
2022-12-19T18:44:19.761Z,17.83
2022-12-19T18:46:48.623Z,18.10
2022-12-19T18:49:16.916Z,18.05
2022-12-19T18:51:47.355Z,16.80
2022-12-19T18:54:17.154Z,16.30
2022-12-19T18:56:45.508Z,16.30
2022-12-19T18:59:12.342Z,15.07
2022-12-19T19:01:46.263Z,14.57
2022-12-19T19:04:16.680Z,14.52
2022-12-19T19:06:50.349Z,13.65
2022-12-19T19:09:19.955Z,13.70
2022-12-19T19:11:46.817Z,12.25
2022-12-19T19:14:13.771Z,12.60
2022-12-19T19:16:40.904Z,12.90
2022-12-19T19:19:11.027Z,13.10
2022-12-19T19:21:39.056Z,12.25
2022-12-19T19:24:26.173Z,13.48
2022-12-19T19:26:53.115Z,13.63
2022-12-19T19:29:20.102Z,14.43
2022-12-19T19:31:49.999Z,12.80
2022-12-19T19:34:27.487Z,13.38
2022-12-19T19:36:59.381Z,14.68
2022-12-19T19:39:27.856Z,15.20
2022-12-19T19:41:56.349Z,15.32
2022-12-19T19:44:23.321Z,15.25
2022-12-19T19:46:50.421Z,15.70
2022-12-19T19:49:17.411Z,14.30
2022-12-19T19:51:44.237Z,15.93
2022-12-19T19:54:11.066Z,14.10
2022-12-19T19:56:38.154Z,15.05
2022-12-19T19:59:05.162Z,13.45
2022-12-19T20:01:32.557Z,14.13
2022-12-19T20:03:59.535Z,15.75
2022-12-19T20:06:26.489Z,14.93
2022-12-19T20:08:53.370Z,15.50
2022-12-19T20:11:20.806Z,14.63
2022-12-19T20:13:47.652Z,15.70
2022-12-19T20:16:18.012Z,14.25
2022-12-19T20:18:49.998Z,15.35
2022-12-19T20:21:18.337Z,14.73
2022-12-19T20:23:45.247Z,14.98
2022-12-19T20:26:13.435Z,14.88
2022-12-19T20:28:47.933Z,14.40
2022-12-19T20:31:17.002Z,16.17
2022-12-19T20:33:43.890Z,14.25
2022-12-19T20:36:12.426Z,13.80
2022-12-19T20:38:40.132Z,13.95
2022-12-19T20:41:07.290Z,15.38
2022-12-19T20:43:34.540Z,15.15
2022-12-19T20:46:13.365Z,14.20
2022-12-19T20:48:40.879Z,14.65
2022-12-19T20:51:09.085Z,14.77
2022-12-19T20:53:38.002Z,15.18
2022-12-19T20:56:06.525Z,13.55
2022-12-19T20:58:35.241Z,13.20
2022-12-19T21:01:10.716Z,14.45
2022-12-19T21:03:38.081Z,14.48
2022-12-19T21:06:06.301Z,13.43
2022-12-19T21:08:34.223Z,13.35
2022-12-19T21:11:01.656Z,13.05
2022-12-19T21:13:28.831Z,14.68
2022-12-19T21:15:58.764Z,13.60
2022-12-19T21:18:27.013Z,12.73
2022-12-19T21:20:53.981Z,13.52
2022-12-19T21:23:20.861Z,13.30
2022-12-19T21:25:47.782Z,14.60
2022-12-19T21:28:15.364Z,16.95
2022-12-19T21:30:42.707Z,16.48
2022-12-19T21:33:09.906Z,17.27
2022-12-19T21:35:38.011Z,18.33
2022-12-19T21:38:04.900Z,21.25
2022-12-19T21:40:31.713Z,18.80
2022-12-19T21:42:58.523Z,18.83
2022-12-19T21:45:25.364Z,18.00
2022-12-19T21:47:52.189Z,18.08
2022-12-19T21:50:19.110Z,17.55
2022-12-19T21:52:46.318Z,17.17
2022-12-19T21:55:14.260Z,15.82
2022-12-19T21:57:41.941Z,17.15
2022-12-19T22:00:11.174Z,16.85
2022-12-19T22:02:38.285Z,17.25
2022-12-19T22:05:06.515Z,15.57
2022-12-19T22:07:34.558Z,16.42
2022-12-19T22:10:01.509Z,15.48
2022-12-19T22:12:28.359Z,14.68
2022-12-19T22:14:55.194Z,14.43
2022-12-19T22:17:22.046Z,14.07
2022-12-19T22:19:49.052Z,12.05
2022-12-19T22:22:15.867Z,13.18
2022-12-19T22:24:42.735Z,13.15
2022-12-19T22:27:09.568Z,12.90
2022-12-19T22:29:36.852Z,14.10
2022-12-19T22:32:04.765Z,13.02
2022-12-19T22:34:31.671Z,14.45
2022-12-19T22:36:58.581Z,14.43
2022-12-19T22:39:25.687Z,14.05
2022-12-19T22:41:52.492Z,14.90
2022-12-19T22:44:23.091Z,15.68
2022-12-19T22:46:50.859Z,13.90
2022-12-19T22:49:18.352Z,14.32
2022-12-19T22:51:45.553Z,13.75
2022-12-19T22:54:13.637Z,12.73
2022-12-19T22:56:40.980Z,13.55
2022-12-19T22:59:09.096Z,14.02
2022-12-19T23:01:38.762Z,13.35
2022-12-19T23:04:07.663Z,12.90
2022-12-19T23:06:37.008Z,13.32
2022-12-19T23:09:08.620Z,14.02
2022-12-19T23:11:38.426Z,14.32
2022-12-19T23:14:07.790Z,15.15
2022-12-19T23:16:34.789Z,13.00
2022-12-19T23:19:01.757Z,14.35
2022-12-19T23:21:28.861Z,13.57
2022-12-19T23:23:56.264Z,13.60
2022-12-19T23:26:32.213Z,12.30
2022-12-19T23:29:01.764Z,14.38
2022-12-19T23:31:29.779Z,12.75
2022-12-19T23:33:57.830Z,12.00
2022-12-19T23:37:00.389Z,12.82
2022-12-19T23:39:12.727Z,9.95
2022-12-19T23:41:40.332Z,11.88
2022-12-19T23:44:08.663Z,12.10
2022-12-19T23:46:35.848Z,13.75
2022-12-19T23:49:03.227Z,13.20
2022-12-19T23:51:30.261Z,14.52
2022-12-19T23:53:57.333Z,13.95
2022-12-19T23:56:29.783Z,14.07
2022-12-19T23:58:57.755Z,14.13
